Time;durP1;ratioP1;P1;durP2;ratioP2;P2;SDS_P1;SDS_P2;PMS_P1;PMS_P2;Temp;Humidity;BMP_temperature;BMP_pressure;BME280_temperature;BME280_humidity;BME280_pressure;Samples;Min_cycle;Max_cycle;Signal;HPM_P1;HPM_P2
2021/01/31 00:00:39;;;;;;;13.30;5.68;;;6.70;99.90;;;;;;5073259;28;20036;-80
2021/01/31 00:03:07;;;;;;;9.45;6.05;;;6.80;99.90;;;;;;5073311;28;20396;-80
2021/01/31 00:05:33;;;;;;;12.20;7.53;;;6.80;99.90;;;;;;5070166;28;20024;-80
2021/01/31 00:07:58;;;;;;;18.75;5.93;;;6.80;99.90;;;;;;5071669;28;20028;-80
2021/01/31 00:10:31;;;;;;;9.80;5.90;;;6.80;99.90;;;;;;5074856;28;20079;-80
2021/01/31 00:12:57;;;;;;;;;;;6.80;99.90;;;;;;5075254;28;20089;-80
2021/01/31 00:15:29;;;;;;;8.35;4.72;;;6.80;99.90;;;;;;5074519;28;19908;-79
2021/01/31 00:17:55;;;;;;;8.25;5.10;;;6.80;99.90;;;;;;5067753;28;20031;-79
2021/01/31 00:20:22;;;;;;;8.50;5.03;;;6.80;99.90;;;;;;5054653;28;20024;-79
2021/01/31 00:22:48;;;;;;;7.10;4.95;;;6.80;99.90;;;;;;5068157;28;20028;-79
2021/01/31 00:25:16;;;;;;;6.88;4.60;;;6.80;99.90;;;;;;5074344;28;20055;-79
2021/01/31 00:27:42;;;;;;;11.38;4.90;;;6.80;99.90;;;;;;5074465;28;20021;-79
2021/01/31 00:30:35;;;;;;;6.03;4.57;;;6.70;99.90;;;;;;5074473;28;20438;-79
2021/01/31 00:33:04;;;;;;;;;;;6.70;99.90;;;;;;5073109;28;20086;-79
2021/01/31 00:35:33;;;;;;;7.18;4.97;;;6.80;99.90;;;;;;5069660;28;20282;-79
2021/01/31 00:37:59;;;;;;;7.55;4.68;;;6.70;99.90;;;;;;5067415;28;20023;-79
2021/01/31 00:40:25;;;;;;;10.48;5.15;;;6.70;99.90;;;;;;5061530;28;20042;-80
2021/01/31 00:42:50;;;;;;;5.72;4.05;;;6.70;99.90;;;;;;5069375;28;20085;-79
2021/01/31 00:45:19;;;;;;;8.65;4.95;;;6.70;99.90;;;;;;5062727;28;20123;-79
2021/01/31 00:47:48;;;;;;;6.25;4.38;;;6.70;99.90;;;;;;5056700;28;20020;-79
2021/01/31 00:50:18;;;;;;;8.52;4.82;;;6.70;99.90;;;;;;5070644;28;20442;-79
2021/01/31 00:52:44;;;;;;;6.90;4.88;;;6.70;99.90;;;;;;5064754;28;20023;-79
2021/01/31 00:55:12;;;;;;;5.78;4.15;;;6.70;99.90;;;;;;5064249;28;20020;-79
2021/01/31 00:57:38;;;;;;;5.82;4.75;;;6.70;99.90;;;;;;5054202;28;20025;-79
2021/01/31 01:00:28;;;;;;;4.57;3.85;;;6.80;99.90;;;;;;5054378;28;20127;-79
2021/01/31 01:02:57;;;;;;;5.90;3.95;;;6.80;99.90;;;;;;5080640;28;20024;-79
2021/01/31 01:05:27;;;;;;;3.42;3.13;;;6.80;99.90;;;;;;5091167;28;20116;-79
2021/01/31 01:07:54;;;;;;;4.88;4.05;;;6.80;99.90;;;;;;5076758;28;20024;-79
2021/01/31 01:10:24;;;;;;;4.82;3.25;;;6.80;99.90;;;;;;5077777;28;20024;-79
2021/01/31 01:12:49;;;;;;;4.38;3.03;;;6.90;99.90;;;;;;5077567;28;20058;-79
2021/01/31 01:15:17;;;;;;;3.15;2.85;;;6.90;99.90;;;;;;5077435;28;20413;-79
2021/01/31 01:17:43;;;;;;;4.32;3.70;;;6.90;99.90;;;;;;5077223;28;20462;-80
2021/01/31 01:20:10;;;;;;;4.97;3.63;;;6.90;99.90;;;;;;5077608;28;20122;-80
2021/01/31 01:22:35;;;;;;;3.55;3.05;;;6.90;99.90;;;;;;5077507;28;20498;-79
2021/01/31 01:25:03;;;;;;;3.92;2.92;;;6.90;99.90;;;;;;5077178;28;20036;-79
2021/01/31 01:27:30;;;;;;;2.70;2.50;;;6.90;99.90;;;;;;5077558;28;20031;-80
2021/01/31 01:29:56;;;;;;;2.53;2.15;;;6.90;99.90;;;;;;5077637;28;20031;-80
2021/01/31 01:32:22;;;;;;;2.42;2.30;;;6.90;99.90;;;;;;5077413;28;20028;-80
2021/01/31 01:34:48;;;;;;;2.47;2.13;;;6.90;99.90;;;;;;5077581;28;20394;-79
2021/01/31 01:37:16;;;;;;;2.90;2.70;;;6.80;99.90;;;;;;5095497;28;20032;-79
2021/01/31 01:39:42;;;;;;;2.45;2.25;;;6.80;99.90;;;;;;5077192;28;20351;-80
2021/01/31 01:42:10;;;;;;;3.08;2.15;;;6.80;99.90;;;;;;5077253;28;20039;-80
2021/01/31 01:44:37;;;;;;;2.55;2.13;;;6.80;99.90;;;;;;5076509;28;20032;-79
2021/01/31 01:47:06;;;;;;;2.85;2.50;;;6.70;99.90;;;;;;5076780;28;20020;-80
2021/01/31 01:49:36;;;;;;;2.25;2.05;;;6.80;99.90;;;;;;5094885;28;20521;-80
2021/01/31 01:52:12;;;;;;;3.13;2.80;;;6.80;99.90;;;;;;5094539;28;20032;-79
2021/01/31 01:54:45;;;;;;;2.30;2.10;;;6.70;99.90;;;;;;5094801;28;20054;-79
2021/01/31 01:57:20;;;;;;;7.43;5.07;;;6.70;99.90;;;;;;5076871;28;20066;-79
2021/01/31 01:59:48;;;;;;;10.65;7.43;;;6.70;99.90;;;;;;5076619;28;20039;-79
2021/01/31 02:02:30;;;;;;;19.25;10.85;;;6.70;99.90;;;;;;5076567;28;20028;-79
2021/01/31 02:05:00;;;;;;;20.25;11.05;;;6.70;99.90;;;;;;5076245;28;20032;-79
2021/01/31 02:07:25;;;;;;;16.88;11.23;;;6.60;99.90;;;;;;5076371;28;20027;-79
2021/01/31 02:09:51;;;;;;;16.38;11.23;;;6.60;99.90;;;;;;5076727;28;20028;-79
2021/01/31 02:12:21;;;;;;;21.15;13.27;;;6.50;99.90;;;;;;5075128;28;20486;-79
2021/01/31 02:14:49;;;;;;;22.33;12.70;;;6.50;99.90;;;;;;5076493;28;20024;-79
2021/01/31 02:17:42;;;;;;;19.42;11.55;;;6.50;99.90;;;;;;5094058;28;20054;-79
2021/01/31 02:20:41;;;;;;;15.80;11.05;;;6.50;99.90;;;;;;5055625;28;20028;-79
2021/01/31 02:23:25;;;;;;;24.45;12.98;;;6.40;99.90;;;;;;5055729;28;20113;-79
2021/01/31 02:25:57;;;;;;;23.13;12.63;;;6.40;99.90;;;;;;5055516;28;20048;-79
2021/01/31 02:28:33;;;;;;;20.92;13.02;;;6.40;99.90;;;;;;5072226;28;20035;-79
2021/01/31 02:31:08;;;;;;;17.80;11.27;;;6.40;99.90;;;;;;5055637;28;20103;-79
2021/01/31 02:33:49;;;;;;;16.92;11.05;;;6.40;99.90;;;;;;5075128;28;20035;-79
2021/01/31 02:36:37;;;;;;;19.40;12.68;;;6.40;99.90;;;;;;5093798;28;20032;-79
2021/01/31 02:39:22;;;;;;;23.30;13.07;;;6.30;99.90;;;;;;5075243;28;20405;-79
2021/01/31 02:41:56;;;;;;;24.77;12.77;;;6.40;99.90;;;;;;5075860;28;20031;-79
2021/01/31 02:44:24;;;;;;;18.77;12.00;;;6.40;99.90;;;;;;5075913;28;20032;-79
2021/01/31 02:46:56;;;;;;;20.13;12.32;;;6.30;99.90;;;;;;5075913;28;20035;-79
2021/01/31 02:49:35;;;;;;;27.45;14.50;;;6.30;99.90;;;;;;5075796;28;20020;-79
2021/01/31 02:52:08;;;;;;;21.02;13.48;;;6.40;99.90;;;;;;5075666;28;20107;-79
2021/01/31 02:54:57;;;;;;;22.92;13.55;;;6.30;99.90;;;;;;5075951;28;20024;-79
2021/01/31 02:57:46;;;;;;;20.20;12.55;;;6.30;99.90;;;;;;5093946;28;20489;-79
2021/01/31 03:00:24;;;;;;;20.52;11.85;;;6.30;99.90;;;;;;5075417;28;20069;-79
2021/01/31 03:02:55;;;;;;;19.73;12.85;;;6.30;99.90;;;;;;5064988;28;20134;-79
2021/01/31 03:05:29;;;;;;;21.33;12.35;;;6.30;99.90;;;;;;5075487;28;20028;-79
2021/01/31 03:08:05;;;;;;;26.10;13.25;;;6.30;99.90;;;;;;5057689;28;20025;-79
2021/01/31 03:10:34;;;;;;;22.30;13.13;;;6.20;99.90;;;;;;5055579;28;20025;-79
2021/01/31 03:13:30;;;;;;;23.05;12.40;;;6.30;99.90;;;;;;5055489;28;20025;-79
2021/01/31 03:16:12;;;;;;;21.63;12.75;;;6.30;99.90;;;;;;5055425;28;20025;-79
2021/01/31 03:19:06;;;;;;;15.43;11.02;;;6.30;99.90;;;;;;5055326;28;20027;-79
2021/01/31 03:21:34;;;;;;;16.15;10.70;;;6.30;99.90;;;;;;5068831;28;20028;-79
2021/01/31 03:24:06;;;;;;;12.43;9.32;;;6.30;99.90;;;;;;5091955;28;20021;-80
2021/01/31 03:26:59;;;;;;;16.15;9.52;;;6.30;99.90;;;;;;5059119;28;20452;-79
2021/01/31 03:29:25;;;;;;;12.88;8.05;;;6.30;99.90;;;;;;5075336;28;20371;-79
2021/01/31 03:32:02;;;;;;;8.98;7.10;;;6.30;99.90;;;;;;5075139;28;20023;-80
2021/01/31 03:34:35;;;;;;;9.70;6.25;;;6.30;99.90;;;;;;5075246;28;20039;-80
2021/01/31 03:37:05;;;;;;;4.88;4.47;;;6.30;99.90;;;;;;5075055;28;20116;-79
2021/01/31 03:39:33;;;;;;;6.82;4.65;;;6.30;99.90;;;;;;5075208;28;20032;-79
2021/01/31 03:41:59;;;;;;;5.00;3.88;;;6.30;99.90;;;;;;5075151;28;20077;-79
2021/01/31 03:44:25;;;;;;;7.20;3.10;;;6.30;99.90;;;;;;5093145;28;20382;-79
2021/01/31 03:47:04;;;;;;;3.20;2.33;;;6.30;99.90;;;;;;5075260;28;20028;-79
2021/01/31 03:49:50;;;;;;;1.85;1.73;;;6.30;99.90;;;;;;5093119;28;20066;-79
2021/01/31 03:52:16;;;;;;;2.58;1.60;;;6.30;99.90;;;;;;5075096;28;20069;-79
2021/01/31 03:54:42;;;;;;;1.80;1.70;;;6.30;99.90;;;;;;5075037;28;20547;-80
2021/01/31 03:57:15;;;;;;;2.42;1.20;;;6.30;99.90;;;;;;5074605;28;20020;-79
2021/01/31 03:59:56;;;;;;;1.15;1.08;;;6.30;99.90;;;;;;5074867;28;20654;-79
2021/01/31 04:02:28;;;;;;;2.00;1.25;;;6.40;99.90;;;;;;5075039;28;20074;-79
2021/01/31 04:04:54;;;;;;;;;;;6.40;99.90;;;;;;5075149;28;20458;-79
2021/01/31 04:07:26;;;;;;;1.00;1.00;;;6.40;99.90;;;;;;5074650;28;19991;-79
2021/01/31 04:09:53;;;;;;;1.40;1.30;;;6.40;99.90;;;;;;5075013;28;20107;-78
2021/01/31 04:12:22;;;;;;;1.25;1.25;;;6.40;99.90;;;;;;5074602;28;20024;-79
2021/01/31 04:14:57;;;;;;;1.08;1.08;;;6.40;99.90;;;;;;5074897;28;20055;-79
2021/01/31 04:17:23;;;;;;;3.55;1.10;;;6.40;99.90;;;;;;5074850;28;20020;-78
2021/01/31 04:19:49;;;;;;;0.90;0.90;;;6.40;99.90;;;;;;5092924;28;20055;-78
2021/01/31 04:22:14;;;;;;;1.20;1.20;;;6.40;99.90;;;;;;5092484;28;20517;-79
2021/01/31 04:24:40;;;;;;;1.70;1.60;;;6.40;99.90;;;;;;5092566;28;20052;-79
2021/01/31 04:27:06;;;;;;;3.40;1.85;;;6.40;99.90;;;;;;5074233;28;20111;-80
2021/01/31 04:29:33;;;;;;;2.15;1.60;;;6.40;99.90;;;;;;5074629;28;20032;-79
2021/01/31 04:31:59;;;;;;;2.60;2.33;;;6.40;99.90;;;;;;5092879;28;20367;-78
2021/01/31 04:34:24;;;;;;;2.92;2.72;;;6.40;99.90;;;;;;5092715;28;20039;-79
2021/01/31 04:36:50;;;;;;;3.97;2.80;;;6.40;99.90;;;;;;5077642;28;20485;-79
2021/01/31 04:39:16;;;;;;;6.13;3.85;;;6.30;99.90;;;;;;5078511;28;20480;-79
2021/01/31 04:41:43;;;;;;;3.72;3.33;;;6.30;99.90;;;;;;5096625;28;20643;-79
2021/01/31 04:44:15;;;;;;;5.15;3.15;;;6.30;99.90;;;;;;5078285;28;20386;-79
2021/01/31 04:46:55;;;;;;;3.22;2.92;;;6.30;99.90;;;;;;5078337;28;20024;-79
2021/01/31 04:49:39;;;;;;;2.78;2.58;;;6.30;99.90;;;;;;5077910;28;20490;-79
2021/01/31 04:52:16;;;;;;;2.40;2.30;;;6.30;99.90;;;;;;5078232;28;20119;-79
2021/01/31 04:54:45;;;;;;;2.80;2.05;;;6.30;99.90;;;;;;5077962;28;20040;-79
2021/01/31 04:57:20;;;;;;;2.22;1.90;;;6.30;99.90;;;;;;5077943;28;20101;-79
2021/01/31 04:59:49;;;;;;;4.65;2.10;;;6.30;99.90;;;;;;5078081;28;20024;-79
2021/01/31 05:02:20;;;;;;;2.30;1.80;;;6.30;99.90;;;;;;5077669;28;20032;-79
2021/01/31 05:04:52;;;;;;;2.92;2.20;;;6.30;99.90;;;;;;5077972;28;20024;-79
2021/01/31 05:07:25;;;;;;;2.47;1.98;;;6.30;99.90;;;;;;5077261;28;20024;-79
2021/01/31 05:09:51;;;;;;;2.15;2.05;;;6.20;99.90;;;;;;5077532;28;20012;-79
2021/01/31 05:12:41;;;;;;;3.45;2.35;;;6.30;99.90;;;;;;5077541;28;20031;-79
2021/01/31 05:15:38;;;;;;;2.03;1.92;;;6.20;99.90;;;;;;5077781;28;20028;-79
2021/01/31 05:18:06;;;;;;;2.50;2.20;;;6.20;99.90;;;;;;5047472;28;20425;-79
2021/01/31 05:20:35;;;;;;;2.25;1.70;;;6.20;99.90;;;;;;5077524;28;20028;-79
2021/01/31 05:23:03;;;;;;;1.70;1.60;;;6.20;99.90;;;;;;5077674;28;20074;-79
2021/01/31 05:25:36;;;;;;;1.85;1.75;;;6.20;99.90;;;;;;5077423;28;20121;-79
2021/01/31 05:28:04;;;;;;;1.88;1.77;;;6.20;99.90;;;;;;5095325;28;20507;-79
2021/01/31 05:30:32;;;;;;;1.90;1.80;;;6.20;99.90;;;;;;5077099;28;20016;-79
2021/01/31 05:33:11;;;;;;;1.85;1.75;;;6.20;99.90;;;;;;5077342;28;20081;-79
2021/01/31 05:36:14;;;;;;;2.58;1.58;;;6.20;99.90;;;;;;5062246;28;20025;-79
2021/01/31 05:38:43;;;;;;;2.08;1.52;;;6.20;99.90;;;;;;4958142;28;20531;-79
2021/01/31 05:41:29;;;;;;;1.60;1.50;;;6.20;99.90;;;;;;5033629;28;20151;-79
2021/01/31 05:44:15;;;;;;;2.65;1.73;;;6.20;99.90;;;;;;5057271;28;20024;-79
2021/01/31 05:46:47;;;;;;;1.70;1.60;;;6.20;99.90;;;;;;5045410;28;20028;-79
2021/01/31 05:49:35;;;;;;;1.83;1.73;;;6.20;99.90;;;;;;5076813;28;20123;-79
2021/01/31 05:52:04;;;;;;;3.30;1.73;;;6.20;99.90;;;;;;5077115;28;20081;-79
2021/01/31 05:54:36;;;;;;;2.13;1.80;;;6.20;99.90;;;;;;5077066;28;20031;-79
2021/01/31 05:57:02;;;;;;;1.70;1.60;;;6.20;99.90;;;;;;5076973;28;20027;-79
2021/01/31 05:59:40;;;;;;;4.90;1.92;;;6.20;99.90;;;;;;5077090;28;20035;-79
2021/01/31 06:02:06;;;;;;;4.10;2.13;;;6.20;99.90;;;;;;5076816;28;20020;-79
2021/01/31 06:04:32;;;;;;;2.63;2.10;;;6.20;99.90;;;;;;5076724;28;20032;-79
2021/01/31 06:07:12;;;;;;;3.20;2.15;;;6.20;99.90;;;;;;5076905;28;20035;-79
2021/01/31 06:09:44;;;;;;;1.90;1.80;;;6.10;99.90;;;;;;5076854;28;20082;-79
2021/01/31 06:12:15;;;;;;;2.28;2.15;;;6.10;99.90;;;;;;5076537;28;20026;-79
2021/01/31 06:14:47;;;;;;;2.60;2.40;;;6.20;99.90;;;;;;5076699;28;20035;-79
2021/01/31 06:17:19;;;;;;;3.05;2.85;;;6.20;99.90;;;;;;5076640;28;20031;-79
2021/01/31 06:19:44;;;;;;;;;;;6.20;99.90;;;;;;5095225;28;20031;-79
2021/01/31 06:22:12;;;;;;;1.98;1.88;;;6.20;99.90;;;;;;5075821;28;20006;-79
2021/01/31 06:24:49;;;;;;;2.05;1.95;;;6.20;99.90;;;;;;5072843;28;20041;-79
2021/01/31 06:27:30;;;;;;;1.75;1.65;;;6.20;99.90;;;;;;5075887;28;20024;-79
2021/01/31 06:30:18;;;;;;;2.70;2.20;;;6.30;99.90;;;;;;5076412;28;20032;-79
2021/01/31 06:32:47;;;;;;;2.83;1.80;;;6.30;99.90;;;;;;5094238;28;20032;-79
2021/01/31 06:35:17;;;;;;;1.92;1.83;;;6.20;99.90;;;;;;5076154;28;20032;-79
2021/01/31 06:38:01;;;;;;;1.73;1.63;;;6.20;99.90;;;;;;5076052;28;20608;-79
2021/01/31 06:40:30;;;;;;;1.67;1.58;;;6.20;99.90;;;;;;5076223;28;20030;-79
2021/01/31 06:43:20;;;;;;;2.17;1.98;;;6.30;99.90;;;;;;5094111;28;20420;-79
2021/01/31 06:45:57;;;;;;;3.55;2.70;;;6.30;99.90;;;;;;5076099;28;20032;-79
2021/01/31 06:48:46;;;;;;;6.03;5.20;;;6.30;99.90;;;;;;5076118;28;20035;-79
2021/01/31 06:51:26;;;;;;;6.00;4.50;;;6.30;99.90;;;;;;5075541;28;20024;-79
2021/01/31 06:54:18;;;;;;;4.38;3.40;;;6.20;99.90;;;;;;5075755;28;20024;-79
2021/01/31 06:57:04;;;;;;;8.25;2.42;;;6.30;99.90;;;;;;5075947;28;20031;-79
2021/01/31 06:59:54;;;;;;;2.00;1.90;;;6.30;99.90;;;;;;5074895;28;20062;-79
2021/01/31 07:02:50;;;;;;;1.77;1.67;;;6.30;99.90;;;;;;5090519;28;20370;-79
2021/01/31 07:05:21;;;;;;;3.83;1.95;;;6.30;99.90;;;;;;5075063;28;20032;-79
2021/01/31 07:08:01;;;;;;;2.20;2.05;;;6.30;99.90;;;;;;5075579;28;20478;-79
2021/01/31 07:10:48;;;;;;;2.50;2.22;;;6.30;99.90;;;;;;5075510;28;20052;-79
2021/01/31 07:13:39;;;;;;;2.03;1.90;;;6.30;99.90;;;;;;5075533;28;20519;-79
2021/01/31 07:16:27;;;;;;;2.08;1.95;;;6.30;99.90;;;;;;5093473;28;20116;-79
2021/01/31 07:19:06;;;;;;;2.10;1.90;;;6.30;99.90;;;;;;5075128;28;20496;-79
2021/01/31 07:21:48;;;;;;;1.70;1.60;;;6.40;99.90;;;;;;5075423;28;20020;-79
2021/01/31 07:24:46;;;;;;;3.53;1.95;;;6.30;99.90;;;;;;5078436;28;20197;-79
2021/01/31 07:27:23;;;;;;;3.13;2.53;;;6.30;99.90;;;;;;5088162;28;20028;-79
2021/01/31 07:30:04;;;;;;;2.15;2.05;;;6.40;99.90;;;;;;5095514;28;20023;-79
2021/01/31 07:32:53;;;;;;;2.40;1.80;;;6.40;99.90;;;;;;5081276;28;20073;-79
2021/01/31 07:35:24;;;;;;;6.82;4.32;;;6.40;99.90;;;;;;5075022;28;20036;-79
2021/01/31 07:37:55;;;;;;;18.02;10.40;;;6.40;99.90;;;;;;5075236;28;20558;-79
2021/01/31 07:40:22;;;;;;;6.82;4.78;;;6.40;99.90;;;;;;5075107;28;20489;-79
2021/01/31 07:42:54;;;;;;;4.57;3.40;;;6.40;99.90;;;;;;5074852;28;20035;-79
2021/01/31 07:45:22;;;;;;;2.65;2.20;;;6.40;99.90;;;;;;5074710;28;20552;-79
2021/01/31 07:47:49;;;;;;;2.08;1.98;;;6.40;99.90;;;;;;5074994;28;20024;-79
2021/01/31 07:50:19;;;;;;;2.22;2.00;;;6.50;99.90;;;;;;5075029;28;20118;-79
2021/01/31 07:53:05;;;;;;;3.33;2.17;;;6.50;99.90;;;;;;5074874;28;20016;-79
2021/01/31 07:55:43;;;;;;;2.95;2.75;;;6.50;99.90;;;;;;5075088;28;20131;-79
2021/01/31 07:58:24;;;;;;;3.17;2.83;;;6.50;99.90;;;;;;5075126;28;20381;-79
2021/01/31 08:00:52;;;;;;;6.32;3.20;;;6.60;99.90;;;;;;5074766;28;20063;-79
2021/01/31 08:03:30;;;;;;;6.20;3.40;;;6.60;99.90;;;;;;5077298;28;20024;-79
2021/01/31 08:06:07;;;;;;;3.45;3.15;;;6.60;99.90;;;;;;5094982;28;20085;-79
2021/01/31 08:08:45;;;;;;;3.53;3.22;;;6.60;99.90;;;;;;5094975;28;20023;-79
2021/01/31 08:11:17;;;;;;;4.28;3.72;;;6.60;99.90;;;;;;5099113;28;20443;-79
2021/01/31 08:13:48;;;;;;;3.35;3.15;;;6.60;99.90;;;;;;5099143;28;20430;-79
2021/01/31 08:16:48;;;;;;;4.32;3.92;;;6.60;99.90;;;;;;5086845;28;20025;-79
2021/01/31 08:19:17;;;;;;;4.38;3.97;;;6.70;99.90;;;;;;5075277;28;20047;-79
2021/01/31 08:22:04;;;;;;;3.78;3.38;;;6.70;99.90;;;;;;5075351;28;20360;-79
2021/01/31 08:24:56;;;;;;;3.55;3.25;;;6.60;99.90;;;;;;5089529;28;20501;-79
2021/01/31 08:27:42;;;;;;;5.00;2.90;;;6.70;99.90;;;;;;5071147;28;20026;-79
2021/01/31 08:30:29;;;;;;;2.83;2.63;;;6.70;99.90;;;;;;5055125;28;20115;-79
2021/01/31 08:32:58;;;;;;;3.05;2.78;;;6.70;99.90;;;;;;5090975;28;20028;-79
2021/01/31 08:35:36;;;;;;;3.22;3.03;;;6.70;99.90;;;;;;5056318;28;20654;-79
2021/01/31 08:38:31;;;;;;;4.82;4.10;;;6.80;99.90;;;;;;5060398;28;20037;-79
2021/01/31 08:43:31;;;;;;;7.68;4.68;;;6.80;99.90;;;;;;5073660;28;20039;-79
2021/01/31 08:46:13;;;;;;;5.95;5.03;;;6.80;99.90;;;;;;5052605;28;20028;-79
2021/01/31 08:48:40;;;;;;;7.10;4.85;;;6.80;99.90;;;;;;5071626;28;20020;-78
2021/01/31 08:51:22;;;;;;;8.20;5.75;;;6.90;99.90;;;;;;5069336;28;20032;-79
2021/01/31 08:54:10;;;;;;;11.70;7.80;;;6.90;99.90;;;;;;5064690;28;20017;-78
2021/01/31 08:56:38;;;;;;;20.02;11.95;;;6.90;99.90;;;;;;5066404;28;20036;-79
2021/01/31 08:59:05;;;;;;;28.17;17.80;;;7.00;99.90;;;;;;5054546;28;20382;-78
2021/01/31 09:01:39;;;;;;;23.02;15.25;;;7.00;99.90;;;;;;5067722;28;20074;-79
2021/01/31 09:04:11;;;;;;;22.38;14.10;;;7.00;99.90;;;;;;5068438;28;20032;-79
2021/01/31 09:06:39;;;;;;;24.08;16.65;;;7.10;99.90;;;;;;5070638;28;20025;-79
2021/01/31 09:09:06;;;;;;;33.28;19.90;;;7.10;99.90;;;;;;5071848;28;20024;-78
2021/01/31 09:11:32;;;;;;;23.65;16.25;;;7.10;99.90;;;;;;5054415;28;20659;-79
2021/01/31 09:14:17;;;;;;;24.80;15.35;;;7.20;99.90;;;;;;5054045;28;20028;-78
2021/01/31 09:16:43;;;;;;;22.15;14.60;;;7.20;99.90;;;;;;5055038;28;20027;-78
2021/01/31 09:19:24;;;;;;;23.60;15.57;;;7.20;99.90;;;;;;5069158;28;20024;-78
2021/01/31 09:21:55;;;;;;;24.25;15.68;;;7.20;99.90;;;;;;5049249;28;20062;-79
2021/01/31 09:24:22;;;;;;;22.52;14.57;;;7.20;99.90;;;;;;5072933;28;20130;-79
2021/01/31 09:26:53;;;;;;;19.65;14.38;;;7.30;99.90;;;;;;5075045;28;20020;-79
2021/01/31 09:29:27;;;;;;;21.60;13.37;;;7.30;99.90;;;;;;5073870;28;20046;-79
2021/01/31 09:31:57;;;;;;;21.80;13.35;;;7.30;99.90;;;;;;5074763;28;20755;-79
2021/01/31 09:34:26;;;;;;;20.70;14.02;;;7.30;99.90;;;;;;5072849;28;20023;-78
2021/01/31 09:37:05;;;;;;;18.65;11.95;;;7.30;99.90;;;;;;5093402;28;20077;-78
2021/01/31 09:39:33;;;;;;;16.80;10.85;;;7.30;99.90;;;;;;5073089;28;20024;-78
2021/01/31 09:42:00;;;;;;;17.92;10.40;;;7.30;99.90;;;;;;5074490;28;20027;-78
2021/01/31 09:44:27;;;;;;;14.95;10.40;;;7.40;99.90;;;;;;5072815;28;20653;-79
2021/01/31 09:46:52;;;;;;;13.38;10.32;;;7.40;99.90;;;;;;5062246;28;20371;-77
2021/01/31 09:49:25;;;;;;;14.07;9.55;;;7.50;99.90;;;;;;5049398;28;20025;-79
2021/01/31 09:51:51;;;;;;;10.57;9.18;;;7.50;99.90;;;;;;5085511;28;20115;-78
2021/01/31 09:54:19;;;;;;;12.57;9.15;;;7.60;99.90;;;;;;5071937;28;20032;-79
2021/01/31 09:57:01;;;;;;;14.30;9.07;;;7.60;99.90;;;;;;5074696;28;20604;-79
2021/01/31 09:59:36;;;;;;;11.57;9.82;;;7.60;99.90;;;;;;5062940;28;20032;-78
2021/01/31 10:02:04;;;;;;;12.55;7.30;;;7.70;99.90;;;;;;5061627;28;20040;-78
2021/01/31 10:04:31;;;;;;;9.85;7.55;;;7.70;99.90;;;;;;5072076;28;20036;-79
2021/01/31 10:07:06;;;;;;;9.52;8.15;;;7.70;99.90;;;;;;5078757;28;20028;-79
2021/01/31 10:09:38;;;;;;;9.90;8.00;;;7.80;99.90;;;;;;5075108;28;20043;-78
2021/01/31 10:12:22;;;;;;;10.75;7.85;;;7.80;99.90;;;;;;5071394;28;20118;-78
2021/01/31 10:14:51;;;;;;;9.00;6.80;;;7.90;99.90;;;;;;5068525;28;20060;-78
2021/01/31 10:17:28;;;;;;;6.72;6.03;;;7.90;99.90;;;;;;5084408;28;20042;-78
2021/01/31 10:20:29;;;;;;;7.65;6.35;;;7.90;99.90;;;;;;5092708;28;20038;-78
2021/01/31 10:23:17;;;;;;;8.85;7.28;;;7.90;99.90;;;;;;5049717;28;20078;-78
2021/01/31 10:25:57;;;;;;;8.38;6.88;;;7.90;99.90;;;;;;5053335;28;20513;-78
2021/01/31 10:28:37;;;;;;;8.40;7.60;;;8.00;99.90;;;;;;5052058;28;20032;-79
2021/01/31 10:31:04;;;;;;;8.30;7.13;;;8.00;99.90;;;;;;5053428;28;20108;-78
2021/01/31 10:33:47;;;;;;;9.63;7.72;;;8.10;99.90;;;;;;5055891;28;20078;-78
2021/01/31 10:36:28;;;;;;;10.30;8.10;;;8.10;99.90;;;;;;5053974;28;20029;-84
2021/01/31 10:38:57;;;;;;;17.63;10.10;;;8.20;99.90;;;;;;5074308;28;20032;-84
2021/01/31 10:41:29;;;;;;;10.90;7.15;;;8.20;99.90;;;;;;5087489;28;20050;-83
2021/01/31 10:44:00;;;;;;;6.80;6.13;;;8.20;99.90;;;;;;5080506;28;20038;-84
2021/01/31 10:46:26;;;;;;;8.50;7.10;;;8.20;99.90;;;;;;5056543;28;20086;-84
2021/01/31 10:48:52;;;;;;;9.20;7.30;;;8.30;99.90;;;;;;5056150;28;20028;-84
2021/01/31 10:51:18;;;;;;;8.20;6.97;;;8.30;99.90;;;;;;5067221;28;20035;-83
2021/01/31 10:53:46;;;;;;;15.10;10.60;;;8.30;99.90;;;;;;5092759;28;20020;-83
2021/01/31 10:56:13;;;;;;;12.73;8.77;;;8.30;99.90;;;;;;5093496;28;20024;-83
2021/01/31 10:58:39;;;;;;;13.25;9.57;;;8.30;99.90;;;;;;5093812;28;20128;-83
2021/01/31 11:01:05;;;;;;;12.85;8.68;;;8.30;99.90;;;;;;5073814;28;20027;-83
2021/01/31 11:03:30;;;;;;;12.15;9.60;;;8.40;99.90;;;;;;5075911;28;20031;-83
2021/01/31 11:05:56;;;;;;;8.50;7.60;;;8.40;99.90;;;;;;5075950;28;20542;-83
2021/01/31 11:08:24;;;;;;;10.27;8.48;;;8.40;99.90;;;;;;5070972;28;20086;-83
2021/01/31 11:10:50;;;;;;;16.77;10.95;;;8.40;99.90;;;;;;5055636;28;20052;-83
2021/01/31 11:13:16;;;;;;;13.65;10.18;;;8.40;99.90;;;;;;5073540;28;20028;-82
2021/01/31 11:15:44;;;;;;;14.32;10.32;;;8.40;99.90;;;;;;5073626;28;20085;-83
2021/01/31 11:18:10;;;;;;;12.27;9.57;;;8.40;99.90;;;;;;5055574;28;20043;-83
2021/01/31 11:20:35;;;;;;;13.43;10.52;;;8.40;99.90;;;;;;5063578;28;20024;-83
2021/01/31 11:23:01;;;;;;;16.85;12.80;;;8.40;99.90;;;;;;5073202;28;20028;-83
2021/01/31 11:25:27;;;;;;;16.98;13.48;;;8.50;99.90;;;;;;5055046;28;20051;-83
2021/01/31 11:27:52;;;;;;;18.98;12.88;;;8.50;99.90;;;;;;5055020;28;20035;-82
2021/01/31 11:30:18;;;;;;;19.52;13.27;;;8.50;99.90;;;;;;5055321;28;20024;-82
2021/01/31 11:32:44;;;;;;;16.38;12.00;;;8.60;99.90;;;;;;5055249;28;20024;-83
2021/01/31 11:35:10;;;;;;;17.92;12.40;;;8.60;99.90;;;;;;5055420;28;20047;-82
2021/01/31 11:37:36;;;;;;;19.95;13.95;;;8.60;99.90;;;;;;5054666;28;20670;-82
2021/01/31 11:40:04;;;;;;;14.85;10.88;;;8.60;99.90;;;;;;5055116;28;20055;-82
2021/01/31 11:42:29;;;;;;;14.07;11.52;;;8.70;99.90;;;;;;5054766;28;20055;-82
2021/01/31 11:44:56;;;;;;;15.82;11.52;;;8.70;99.90;;;;;;5054615;28;20467;-82
2021/01/31 11:47:21;;;;;;;14.05;10.80;;;8.80;99.90;;;;;;5051251;28;20029;-82
2021/01/31 11:49:47;;;;;;;14.35;11.02;;;8.80;99.90;;;;;;5052788;28;20021;-82
2021/01/31 11:52:12;;;;;;;14.52;10.70;;;8.80;99.90;;;;;;5054465;28;20020;-82
2021/01/31 11:54:38;;;;;;;12.50;10.55;;;8.90;99.90;;;;;;5055110;28;20032;-82
2021/01/31 11:57:04;;;;;;;10.10;9.00;;;8.90;99.90;;;;;;5054856;28;20537;-82
2021/01/31 11:59:30;;;;;;;15.80;10.43;;;9.00;99.90;;;;;;5074935;28;20028;-82
2021/01/31 12:01:55;;;;;;;11.98;9.18;;;9.10;99.90;;;;;;5054589;28;20131;-82
2021/01/31 12:04:21;;;;;;;13.80;9.75;;;9.10;99.90;;;;;;5072668;28;20038;-82
2021/01/31 12:06:46;;;;;;;10.82;9.57;;;9.20;99.90;;;;;;5054211;28;20039;-82
2021/01/31 12:09:12;;;;;;;11.70;9.18;;;9.30;99.90;;;;;;5072687;28;20032;-82
2021/01/31 12:11:38;;;;;;;11.18;9.32;;;9.30;99.90;;;;;;5054521;28;20070;-82
2021/01/31 12:14:03;;;;;;;9.85;8.35;;;9.30;99.90;;;;;;5054839;28;20073;-82
2021/01/31 12:16:29;;;;;;;8.68;7.78;;;9.30;99.90;;;;;;5054271;28;20383;-82
2021/01/31 12:18:55;;;;;;;11.43;8.65;;;9.40;99.90;;;;;;5072631;28;20032;-82
2021/01/31 12:21:23;;;;;;;9.13;7.75;;;9.40;99.90;;;;;;5072400;28;20123;-82
2021/01/31 12:23:49;;;;;;;8.73;7.88;;;9.40;99.90;;;;;;5054312;28;20016;-82
2021/01/31 12:26:15;;;;;;;10.70;8.40;;;9.50;99.90;;;;;;5073824;28;20032;-82
2021/01/31 12:28:40;;;;;;;10.93;8.98;;;9.50;99.90;;;;;;5082201;28;20028;-82
2021/01/31 12:31:06;;;;;;;11.38;8.15;;;9.50;99.90;;;;;;5065049;28;20032;-82
2021/01/31 12:33:33;;;;;;;5.95;5.43;;;9.50;99.90;;;;;;5054610;28;20032;-82
2021/01/31 12:36:10;;;;;;;6.55;5.70;;;9.50;99.90;;;;;;5075150;28;21440;-83
2021/01/31 12:38:36;;;;;;;6.95;6.25;;;9.60;99.90;;;;;;5076662;28;20020;-83
2021/01/31 12:41:01;;;;;;;6.40;5.45;;;9.60;99.90;;;;;;5057019;28;20036;-82
2021/01/31 12:43:27;;;;;;;6.40;5.57;;;9.50;99.90;;;;;;5081006;28;20024;-82
2021/01/31 12:45:53;;;;;;;7.70;5.75;;;9.60;99.90;;;;;;5062068;28;20032;-78
2021/01/31 12:48:18;;;;;;;8.57;6.50;;;9.60;99.90;;;;;;5072198;28;20025;-78
2021/01/31 12:50:44;;;;;;;7.50;6.38;;;9.60;99.90;;;;;;5049385;28;20024;-78
2021/01/31 12:53:10;;;;;;;8.40;6.30;;;9.60;99.90;;;;;;5074203;28;20048;-78
2021/01/31 12:55:37;;;;;;;9.68;6.35;;;9.60;99.90;;;;;;5073990;28;20052;-78
2021/01/31 12:58:04;;;;;;;9.02;6.95;;;9.60;99.90;;;;;;5077478;28;20078;-78
2021/01/31 13:00:30;;;;;;;10.32;7.50;;;9.60;99.90;;;;;;5077619;28;20032;-78
2021/01/31 13:02:56;;;;;;;10.25;7.10;;;9.70;99.90;;;;;;5077843;28;20470;-78
2021/01/31 13:05:30;;;;;;;7.13;6.40;;;9.70;99.90;;;;;;5077443;28;20119;-79
2021/01/31 13:07:59;;;;;;;6.57;5.97;;;9.70;99.90;;;;;;5095982;28;20473;-79
2021/01/31 13:10:25;;;;;;;9.65;6.53;;;9.80;99.90;;;;;;5077417;28;20024;-78
2021/01/31 13:12:51;;;;;;;9.90;6.60;;;9.80;99.90;;;;;;5077616;28;20030;-78
2021/01/31 13:15:18;;;;;;;9.35;6.97;;;9.80;99.90;;;;;;5095818;28;20107;-79
2021/01/31 13:17:43;;;;;;;12.95;7.68;;;9.90;99.90;;;;;;5076181;28;20036;-78
2021/01/31 13:20:10;;;;;;;13.07;7.72;;;9.90;99.90;;;;;;5057945;28;20074;-79
2021/01/31 13:22:35;;;;;;;13.32;6.80;;;9.90;99.90;;;;;;5057970;28;20398;-78